sensor_id;sensor_type;location;lat;lon;timestamp;P1;durP1;ratioP1;P2;durP2;ratioP2
3149;SDS011;32503;47.748;8.960;2024-01-07T00:00:55;4.40;;;4.10;;
3149;SDS011;32503;47.748;8.960;2024-01-07T00:03:22;3.33;;;3.13;;
3149;SDS011;32503;47.748;8.960;2024-01-07T00:05:49;3.83;;;3.50;;
3149;SDS011;32503;47.748;8.960;2024-01-07T00:08:16;2.90;;;2.80;;
3149;SDS011;32503;47.748;8.960;2024-01-07T00:10:43;2.57;;;2.47;;
3149;SDS011;32503;47.748;8.960;2024-01-07T00:13:11;2.37;;;2.17;;
3149;SDS011;32503;47.748;8.960;2024-01-07T00:15:39;2.47;;;2.37;;
3149;SDS011;32503;47.748;8.960;2024-01-07T00:18:06;2.70;;;2.50;;
3149;SDS011;32503;47.748;8.960;2024-01-07T00:20:33;2.83;;;2.67;;
3149;SDS011;32503;47.748;8.960;2024-01-07T00:23:00;2.30;;;2.20;;
3149;SDS011;32503;47.748;8.960;2024-01-07T00:25:27;2.73;;;2.53;;
3149;SDS011;32503;47.748;8.960;2024-01-07T00:27:54;3.03;;;2.93;;
3149;SDS011;32503;47.748;8.960;2024-01-07T00:30:23;2.73;;;2.63;;
3149;SDS011;32503;47.748;8.960;2024-01-07T00:32:50;3.30;;;2.97;;
3149;SDS011;32503;47.748;8.960;2024-01-07T00:35:17;2.57;;;2.37;;
3149;SDS011;32503;47.748;8.960;2024-01-07T00:37:44;3.33;;;3.13;;
3149;SDS011;32503;47.748;8.960;2024-01-07T00:40:11;3.10;;;2.90;;
3149;SDS011;32503;47.748;8.960;2024-01-07T00:42:38;2.60;;;2.50;;
3149;SDS011;32503;47.748;8.960;2024-01-07T00:45:06;3.00;;;2.77;;
3149;SDS011;32503;47.748;8.960;2024-01-07T00:47:36;2.60;;;2.50;;
3149;SDS011;32503;47.748;8.960;2024-01-07T00:50:03;3.97;;;3.67;;
3149;SDS011;32503;47.748;8.960;2024-01-07T00:52:31;3.10;;;2.90;;
3149;SDS011;32503;47.748;8.960;2024-01-07T00:54:58;3.20;;;3.00;;
3149;SDS011;32503;47.748;8.960;2024-01-07T00:57:27;4.30;;;4.00;;
3149;SDS011;32503;47.748;8.960;2024-01-07T00:59:54;3.50;;;3.20;;
3149;SDS011;32503;47.748;8.960;2024-01-07T01:02:21;3.33;;;3.13;;
3149;SDS011;32503;47.748;8.960;2024-01-07T01:04:49;3.47;;;3.27;;
3149;SDS011;32503;47.748;8.960;2024-01-07T01:07:17;3.00;;;2.80;;
3149;SDS011;32503;47.748;8.960;2024-01-07T01:09:44;3.30;;;3.10;;
3149;SDS011;32503;47.748;8.960;2024-01-07T01:12:11;2.90;;;2.70;;
3149;SDS011;32503;47.748;8.960;2024-01-07T01:14:38;2.60;;;2.50;;
3149;SDS011;32503;47.748;8.960;2024-01-07T01:17:05;3.07;;;2.87;;
3149;SDS011;32503;47.748;8.960;2024-01-07T01:19:32;3.43;;;3.13;;
3149;SDS011;32503;47.748;8.960;2024-01-07T01:22:00;3.03;;;2.93;;
3149;SDS011;32503;47.748;8.960;2024-01-07T01:24:27;3.00;;;2.80;;
3149;SDS011;32503;47.748;8.960;2024-01-07T01:26:54;3.90;;;3.20;;
3149;SDS011;32503;47.748;8.960;2024-01-07T01:29:21;2.77;;;2.57;;
3149;SDS011;32503;47.748;8.960;2024-01-07T01:31:48;3.27;;;3.00;;
3149;SDS011;32503;47.748;8.960;2024-01-07T01:34:15;3.27;;;3.07;;
3149;SDS011;32503;47.748;8.960;2024-01-07T01:36:42;4.20;;;3.90;;
3149;SDS011;32503;47.748;8.960;2024-01-07T01:39:11;2.97;;;2.77;;
3149;SDS011;32503;47.748;8.960;2024-01-07T01:41:38;2.87;;;2.77;;
3149;SDS011;32503;47.748;8.960;2024-01-07T01:44:05;3.10;;;2.90;;
3149;SDS011;32503;47.748;8.960;2024-01-07T01:46:33;2.83;;;2.63;;
3149;SDS011;32503;47.748;8.960;2024-01-07T01:49:00;3.57;;;3.27;;
3149;SDS011;32503;47.748;8.960;2024-01-07T01:51:27;2.87;;;2.67;;
3149;SDS011;32503;47.748;8.960;2024-01-07T01:53:54;3.33;;;3.13;;
3149;SDS011;32503;47.748;8.960;2024-01-07T01:56:24;3.13;;;2.80;;
3149;SDS011;32503;47.748;8.960;2024-01-07T01:58:53;3.90;;;3.60;;
3149;SDS011;32503;47.748;8.960;2024-01-07T02:01:20;3.20;;;2.90;;
3149;SDS011;32503;47.748;8.960;2024-01-07T02:03:48;3.17;;;2.97;;
3149;SDS011;32503;47.748;8.960;2024-01-07T02:06:16;3.50;;;3.20;;
3149;SDS011;32503;47.748;8.960;2024-01-07T02:08:44;3.30;;;3.00;;
3149;SDS011;32503;47.748;8.960;2024-01-07T02:11:17;3.33;;;3.13;;
3149;SDS011;32503;47.748;8.960;2024-01-07T02:13:47;3.60;;;3.30;;
3149;SDS011;32503;47.748;8.960;2024-01-07T02:16:14;3.30;;;3.00;;
3149;SDS011;32503;47.748;8.960;2024-01-07T02:18:42;3.70;;;3.40;;
3149;SDS011;32503;47.748;8.960;2024-01-07T02:21:11;2.97;;;2.70;;
3149;SDS011;32503;47.748;8.960;2024-01-07T02:23:40;2.90;;;2.50;;
3149;SDS011;32503;47.748;8.960;2024-01-07T02:26:08;2.97;;;2.77;;
3149;SDS011;32503;47.748;8.960;2024-01-07T02:28:35;3.53;;;3.23;;
3149;SDS011;32503;47.748;8.960;2024-01-07T02:31:02;3.27;;;3.07;;
3149;SDS011;32503;47.748;8.960;2024-01-07T02:33:29;3.07;;;2.73;;
3149;SDS011;32503;47.748;8.960;2024-01-07T02:35:56;3.93;;;2.70;;
3149;SDS011;32503;47.748;8.960;2024-01-07T02:38:23;3.00;;;2.80;;
3149;SDS011;32503;47.748;8.960;2024-01-07T02:40:50;4.10;;;3.80;;
3149;SDS011;32503;47.748;8.960;2024-01-07T02:43:19;3.37;;;3.07;;
3149;SDS011;32503;47.748;8.960;2024-01-07T02:45:46;4.10;;;3.70;;
3149;SDS011;32503;47.748;8.960;2024-01-07T02:48:13;4.27;;;3.30;;
3149;SDS011;32503;47.748;8.960;2024-01-07T02:50:40;4.30;;;3.47;;
3149;SDS011;32503;47.748;8.960;2024-01-07T02:53:07;3.10;;;2.90;;
3149;SDS011;32503;47.748;8.960;2024-01-07T02:55:36;3.20;;;2.90;;
3149;SDS011;32503;47.748;8.960;2024-01-07T02:58:02;3.50;;;3.30;;
3149;SDS011;32503;47.748;8.960;2024-01-07T03:00:30;6.27;;;3.60;;
3149;SDS011;32503;47.748;8.960;2024-01-07T03:02:57;3.90;;;3.67;;
3149;SDS011;32503;47.748;8.960;2024-01-07T03:05:24;3.70;;;3.40;;
3149;SDS011;32503;47.748;8.960;2024-01-07T03:07:54;4.40;;;3.77;;
3149;SDS011;32503;47.748;8.960;2024-01-07T03:10:21;3.30;;;3.00;;
3149;SDS011;32503;47.748;8.960;2024-01-07T03:12:48;3.50;;;2.90;;
3149;SDS011;32503;47.748;8.960;2024-01-07T03:15:15;4.00;;;3.60;;
3149;SDS011;32503;47.748;8.960;2024-01-07T03:17:43;3.47;;;3.27;;
3149;SDS011;32503;47.748;8.960;2024-01-07T03:20:11;3.67;;;3.37;;
3149;SDS011;32503;47.748;8.960;2024-01-07T03:22:38;4.00;;;3.60;;
3149;SDS011;32503;47.748;8.960;2024-01-07T03:25:05;3.43;;;3.17;;
3149;SDS011;32503;47.748;8.960;2024-01-07T03:27:34;2.53;;;2.33;;
3149;SDS011;32503;47.748;8.960;2024-01-07T03:30:01;4.23;;;3.33;;
3149;SDS011;32503;47.748;8.960;2024-01-07T03:32:28;3.90;;;3.70;;
3149;SDS011;32503;47.748;8.960;2024-01-07T03:34:56;3.30;;;3.10;;
3149;SDS011;32503;47.748;8.960;2024-01-07T03:37:23;3.40;;;3.10;;
3149;SDS011;32503;47.748;8.960;2024-01-07T03:39:50;3.67;;;3.47;;
3149;SDS011;32503;47.748;8.960;2024-01-07T03:42:17;3.50;;;3.20;;
3149;SDS011;32503;47.748;8.960;2024-01-07T03:44:44;3.30;;;3.10;;
3149;SDS011;32503;47.748;8.960;2024-01-07T03:47:11;3.60;;;3.20;;
3149;SDS011;32503;47.748;8.960;2024-01-07T03:49:38;3.33;;;3.13;;
3149;SDS011;32503;47.748;8.960;2024-01-07T03:52:07;5.13;;;4.73;;
3149;SDS011;32503;47.748;8.960;2024-01-07T03:54:34;4.13;;;3.80;;
3149;SDS011;32503;47.748;8.960;2024-01-07T03:57:01;3.07;;;2.87;;
3149;SDS011;32503;47.748;8.960;2024-01-07T03:59:29;3.50;;;3.20;;
3149;SDS011;32503;47.748;8.960;2024-01-07T04:01:56;6.87;;;4.10;;
3149;SDS011;32503;47.748;8.960;2024-01-07T04:04:23;3.30;;;3.10;;
3149;SDS011;32503;47.748;8.960;2024-01-07T04:06:50;5.40;;;3.67;;
3149;SDS011;32503;47.748;8.960;2024-01-07T04:09:19;3.57;;;3.27;;
3149;SDS011;32503;47.748;8.960;2024-01-07T04:11:46;3.67;;;3.37;;
3149;SDS011;32503;47.748;8.960;2024-01-07T04:14:14;3.83;;;3.60;;
3149;SDS011;32503;47.748;8.960;2024-01-07T04:16:41;3.47;;;3.27;;
3149;SDS011;32503;47.748;8.960;2024-01-07T04:19:09;3.53;;;3.23;;
3149;SDS011;32503;47.748;8.960;2024-01-07T04:21:36;3.80;;;3.43;;
3149;SDS011;32503;47.748;8.960;2024-01-07T04:24:03;3.93;;;3.63;;
3149;SDS011;32503;47.748;8.960;2024-01-07T04:26:32;4.10;;;3.73;;
3149;SDS011;32503;47.748;8.960;2024-01-07T04:28:59;4.77;;;4.37;;
3149;SDS011;32503;47.748;8.960;2024-01-07T04:31:26;3.57;;;3.37;;
3149;SDS011;32503;47.748;8.960;2024-01-07T04:33:53;2.90;;;2.70;;
3149;SDS011;32503;47.748;8.960;2024-01-07T04:36:20;4.13;;;3.73;;
3149;SDS011;32503;47.748;8.960;2024-01-07T04:38:47;4.00;;;3.80;;
3149;SDS011;32503;47.748;8.960;2024-01-07T04:41:14;4.20;;;3.80;;
3149;SDS011;32503;47.748;8.960;2024-01-07T04:43:43;4.37;;;3.23;;
3149;SDS011;32503;47.748;8.960;2024-01-07T04:46:10;3.63;;;3.37;;
3149;SDS011;32503;47.748;8.960;2024-01-07T04:48:37;3.10;;;2.90;;
3149;SDS011;32503;47.748;8.960;2024-01-07T04:51:05;3.50;;;3.17;;
3149;SDS011;32503;47.748;8.960;2024-01-07T04:53:33;4.17;;;3.87;;
3149;SDS011;32503;47.748;8.960;2024-01-07T04:56:00;3.87;;;3.57;;
3149;SDS011;32503;47.748;8.960;2024-01-07T04:58:27;3.53;;;3.23;;
3149;SDS011;32503;47.748;8.960;2024-01-07T05:00:56;3.87;;;3.50;;
3149;SDS011;32503;47.748;8.960;2024-01-07T05:03:23;4.67;;;4.27;;
3149;SDS011;32503;47.748;8.960;2024-01-07T05:05:50;4.53;;;4.20;;
3149;SDS011;32503;47.748;8.960;2024-01-07T05:08:17;4.10;;;3.80;;
3149;SDS011;32503;47.748;8.960;2024-01-07T05:10:44;5.87;;;4.17;;
3149;SDS011;32503;47.748;8.960;2024-01-07T05:13:11;4.17;;;3.50;;
3149;SDS011;32503;47.748;8.960;2024-01-07T05:15:38;4.03;;;3.63;;
3149;SDS011;32503;47.748;8.960;2024-01-07T05:18:08;4.83;;;4.23;;
3149;SDS011;32503;47.748;8.960;2024-01-07T05:20:35;3.10;;;2.90;;
3149;SDS011;32503;47.748;8.960;2024-01-07T05:23:02;4.17;;;3.87;;
3149;SDS011;32503;47.748;8.960;2024-01-07T05:25:30;3.73;;;3.43;;
3149;SDS011;32503;47.748;8.960;2024-01-07T05:27:57;6.53;;;4.00;;
3149;SDS011;32503;47.748;8.960;2024-01-07T05:30:24;3.40;;;3.20;;
3149;SDS011;32503;47.748;8.960;2024-01-07T05:32:51;3.80;;;3.50;;
3149;SDS011;32503;47.748;8.960;2024-01-07T05:35:19;3.50;;;3.23;;
3149;SDS011;32503;47.748;8.960;2024-01-07T05:37:46;3.90;;;3.60;;
3149;SDS011;32503;47.748;8.960;2024-01-07T05:40:13;3.80;;;3.50;;
3149;SDS011;32503;47.748;8.960;2024-01-07T05:42:41;3.87;;;3.50;;
3149;SDS011;32503;47.748;8.960;2024-01-07T05:45:08;4.30;;;4.00;;
3149;SDS011;32503;47.748;8.960;2024-01-07T05:47:35;4.60;;;3.60;;
3149;SDS011;32503;47.748;8.960;2024-01-07T05:50:02;3.83;;;3.50;;
3149;SDS011;32503;47.748;8.960;2024-01-07T05:52:31;4.13;;;3.60;;
3149;SDS011;32503;47.748;8.960;2024-01-07T05:54:58;4.13;;;3.83;;
3149;SDS011;32503;47.748;8.960;2024-01-07T05:57:26;4.60;;;3.83;;
3149;SDS011;32503;47.748;8.960;2024-01-07T05:59:53;3.97;;;3.67;;
3149;SDS011;32503;47.748;8.960;2024-01-07T06:02:20;4.37;;;3.97;;
3149;SDS011;32503;47.748;8.960;2024-01-07T06:04:47;7.37;;;5.87;;
3149;SDS011;32503;47.748;8.960;2024-01-07T06:07:14;5.70;;;5.10;;
3149;SDS011;32503;47.748;8.960;2024-01-07T06:09:43;6.30;;;5.80;;
3149;SDS011;32503;47.748;8.960;2024-01-07T06:12:10;6.13;;;5.63;;
3149;SDS011;32503;47.748;8.960;2024-01-07T06:14:37;4.40;;;4.10;;
3149;SDS011;32503;47.748;8.960;2024-01-07T06:17:04;5.97;;;4.90;;
3149;SDS011;32503;47.748;8.960;2024-01-07T06:19:31;4.90;;;4.60;;
3149;SDS011;32503;47.748;8.960;2024-01-07T06:21:59;5.53;;;4.80;;
3149;SDS011;32503;47.748;8.960;2024-01-07T06:24:26;5.67;;;4.87;;
3149;SDS011;32503;47.748;8.960;2024-01-07T06:26:54;4.73;;;4.30;;
3149;SDS011;32503;47.748;8.960;2024-01-07T06:29:21;4.47;;;4.07;;
3149;SDS011;32503;47.748;8.960;2024-01-07T06:31:48;7.93;;;5.37;;
3149;SDS011;32503;47.748;8.960;2024-01-07T06:34:15;5.47;;;4.97;;
3149;SDS011;32503;47.748;8.960;2024-01-07T06:36:42;5.50;;;4.70;;
3149;SDS011;32503;47.748;8.960;2024-01-07T06:39:10;5.20;;;4.70;;
3149;SDS011;32503;47.748;8.960;2024-01-07T06:41:37;7.83;;;7.03;;
3149;SDS011;32503;47.748;8.960;2024-01-07T06:44:05;5.83;;;5.40;;
3149;SDS011;32503;47.748;8.960;2024-01-07T06:46:32;4.60;;;4.20;;
3149;SDS011;32503;47.748;8.960;2024-01-07T06:49:00;5.40;;;4.37;;
3149;SDS011;32503;47.748;8.960;2024-01-07T06:51:27;4.60;;;4.20;;
3149;SDS011;32503;47.748;8.960;2024-01-07T06:53:55;6.57;;;5.50;;
3149;SDS011;32503;47.748;8.960;2024-01-07T06:56:22;4.80;;;4.37;;
3149;SDS011;32503;47.748;8.960;2024-01-07T06:58:49;4.87;;;4.37;;
3149;SDS011;32503;47.748;8.960;2024-01-07T07:01:19;6.37;;;5.30;;
3149;SDS011;32503;47.748;8.960;2024-01-07T07:03:48;6.50;;;5.90;;
3149;SDS011;32503;47.748;8.960;2024-01-07T07:06:15;4.30;;;4.03;;
3149;SDS011;32503;47.748;8.960;2024-01-07T07:08:42;4.83;;;4.40;;
3149;SDS011;32503;47.748;8.960;2024-01-07T07:11:09;4.43;;;4.10;;
3149;SDS011;32503;47.748;8.960;2024-01-07T07:13:36;4.73;;;4.20;;
3149;SDS011;32503;47.748;8.960;2024-01-07T07:16:04;5.60;;;4.90;;
3149;SDS011;32503;47.748;8.960;2024-01-07T07:18:34;7.00;;;4.70;;
3149;SDS011;32503;47.748;8.960;2024-01-07T07:21:01;4.60;;;4.20;;
3149;SDS011;32503;47.748;8.960;2024-01-07T07:23:28;8.07;;;5.40;;
3149;SDS011;32503;47.748;8.960;2024-01-07T07:25:55;5.00;;;4.63;;
3149;SDS011;32503;47.748;8.960;2024-01-07T07:28:22;8.57;;;5.23;;
3149;SDS011;32503;47.748;8.960;2024-01-07T07:30:49;5.60;;;4.30;;
3149;SDS011;32503;47.748;8.960;2024-01-07T07:33:17;4.70;;;4.30;;
3149;SDS011;32503;47.748;8.960;2024-01-07T07:35:45;6.30;;;4.57;;
3149;SDS011;32503;47.748;8.960;2024-01-07T07:38:12;5.27;;;4.60;;
3149;SDS011;32503;47.748;8.960;2024-01-07T07:40:39;4.87;;;4.40;;
3149;SDS011;32503;47.748;8.960;2024-01-07T07:43:07;4.87;;;3.67;;
3149;SDS011;32503;47.748;8.960;2024-01-07T07:45:35;5.50;;;4.60;;
3149;SDS011;32503;47.748;8.960;2024-01-07T07:48:02;6.33;;;5.40;;
3149;SDS011;32503;47.748;8.960;2024-01-07T07:50:30;6.73;;;5.63;;
3149;SDS011;32503;47.748;8.960;2024-01-07T07:52:58;5.97;;;5.43;;
3149;SDS011;32503;47.748;8.960;2024-01-07T07:55:25;7.50;;;5.80;;
3149;SDS011;32503;47.748;8.960;2024-01-07T07:57:53;7.60;;;6.13;;
3149;SDS011;32503;47.748;8.960;2024-01-07T08:00:20;7.67;;;5.30;;
3149;SDS011;32503;47.748;8.960;2024-01-07T08:02:47;5.70;;;5.20;;
3149;SDS011;32503;47.748;8.960;2024-01-07T08:05:14;5.03;;;4.60;;
3149;SDS011;32503;47.748;8.960;2024-01-07T08:07:42;5.67;;;5.10;;
3149;SDS011;32503;47.748;8.960;2024-01-07T08:10:10;7.53;;;6.80;;
3149;SDS011;32503;47.748;8.960;2024-01-07T08:12:37;7.40;;;5.43;;
3149;SDS011;32503;47.748;8.960;2024-01-07T08:15:05;6.70;;;5.03;;
3149;SDS011;32503;47.748;8.960;2024-01-07T08:17:34;6.73;;;5.00;;
3149;SDS011;32503;47.748;8.960;2024-01-07T08:20:01;5.03;;;4.53;;
3149;SDS011;32503;47.748;8.960;2024-01-07T08:22:28;6.00;;;5.30;;
3149;SDS011;32503;47.748;8.960;2024-01-07T08:24:56;4.67;;;4.27;;
3149;SDS011;32503;47.748;8.960;2024-01-07T08:27:24;5.73;;;5.20;;
3149;SDS011;32503;47.748;8.960;2024-01-07T08:29:52;6.00;;;5.33;;
3149;SDS011;32503;47.748;8.960;2024-01-07T08:32:19;7.13;;;5.63;;
3149;SDS011;32503;47.748;8.960;2024-01-07T08:34:47;7.80;;;5.80;;
3149;SDS011;32503;47.748;8.960;2024-01-07T08:37:14;5.87;;;5.30;;
3149;SDS011;32503;47.748;8.960;2024-01-07T08:39:42;6.40;;;4.27;;
3149;SDS011;32503;47.748;8.960;2024-01-07T08:42:09;5.17;;;4.70;;
3149;SDS011;32503;47.748;8.960;2024-01-07T08:44:37;5.70;;;5.00;;
3149;SDS011;32503;47.748;8.960;2024-01-07T08:47:04;6.10;;;4.87;;
3149;SDS011;32503;47.748;8.960;2024-01-07T08:49:31;5.93;;;5.40;;
3149;SDS011;32503;47.748;8.960;2024-01-07T08:51:59;5.57;;;5.03;;
3149;SDS011;32503;47.748;8.960;2024-01-07T08:54:26;7.13;;;6.20;;
3149;SDS011;32503;47.748;8.960;2024-01-07T08:56:53;6.17;;;5.57;;
3149;SDS011;32503;47.748;8.960;2024-01-07T08:59:20;5.97;;;5.47;;
3149;SDS011;32503;47.748;8.960;2024-01-07T09:01:49;5.13;;;4.73;;
3149;SDS011;32503;47.748;8.960;2024-01-07T09:04:16;6.63;;;5.00;;
3149;SDS011;32503;47.748;8.960;2024-01-07T09:06:43;8.03;;;5.43;;
3149;SDS011;32503;47.748;8.960;2024-01-07T09:09:10;5.00;;;4.50;;
3149;SDS011;32503;47.748;8.960;2024-01-07T09:11:38;5.13;;;4.30;;
3149;SDS011;32503;47.748;8.960;2024-01-07T09:14:05;7.93;;;6.80;;
3149;SDS011;32503;47.748;8.960;2024-01-07T09:16:33;6.00;;;5.33;;
3149;SDS011;32503;47.748;8.960;2024-01-07T09:19:01;4.60;;;4.30;;
3149;SDS011;32503;47.748;8.960;2024-01-07T09:21:28;5.03;;;4.50;;
3149;SDS011;32503;47.748;8.960;2024-01-07T09:23:55;5.00;;;4.60;;
3149;SDS011;32503;47.748;8.960;2024-01-07T09:26:22;6.77;;;4.90;;
3149;SDS011;32503;47.748;8.960;2024-01-07T09:28:49;8.77;;;5.73;;
3149;SDS011;32503;47.748;8.960;2024-01-07T09:31:17;6.30;;;5.70;;
3149;SDS011;32503;47.748;8.960;2024-01-07T09:33:44;6.20;;;5.70;;
3149;SDS011;32503;47.748;8.960;2024-01-07T09:36:12;4.80;;;4.50;;
3149;SDS011;32503;47.748;8.960;2024-01-07T09:38:42;5.90;;;5.40;;
3149;SDS011;32503;47.748;8.960;2024-01-07T09:41:09;5.73;;;5.10;;
3149;SDS011;32503;47.748;8.960;2024-01-07T09:43:36;5.03;;;4.63;;
3149;SDS011;32503;47.748;8.960;2024-01-07T09:46:03;4.93;;;4.60;;
3149;SDS011;32503;47.748;8.960;2024-01-07T09:48:31;6.07;;;5.47;;
3149;SDS011;32503;47.748;8.960;2024-01-07T09:51:00;5.43;;;5.03;;
3149;SDS011;32503;47.748;8.960;2024-01-07T09:53:30;4.10;;;3.80;;
3149;SDS011;32503;47.748;8.960;2024-01-07T09:56:01;5.00;;;4.57;;
3149;SDS011;32503;47.748;8.960;2024-01-07T09:58:38;5.50;;;5.10;;
3149;SDS011;32503;47.748;8.960;2024-01-07T10:01:07;5.13;;;4.63;;
3149;SDS011;32503;47.748;8.960;2024-01-07T10:03:34;5.93;;;4.60;;
3149;SDS011;32503;47.748;8.960;2024-01-07T10:06:02;7.40;;;5.70;;
3149;SDS011;32503;47.748;8.960;2024-01-07T10:08:31;5.80;;;4.93;;
3149;SDS011;32503;47.748;8.960;2024-01-07T10:10:59;4.80;;;4.40;;
3149;SDS011;32503;47.748;8.960;2024-01-07T10:13:26;10.00;;;6.80;;
3149;SDS011;32503;47.748;8.960;2024-01-07T10:15:53;9.33;;;7.07;;
3149;SDS011;32503;47.748;8.960;2024-01-07T10:18:21;5.47;;;5.13;;
3149;SDS011;32503;47.748;8.960;2024-01-07T10:20:48;5.70;;;5.23;;
3149;SDS011;32503;47.748;8.960;2024-01-07T10:23:18;9.33;;;8.33;;
3149;SDS011;32503;47.748;8.960;2024-01-07T10:25:47;6.40;;;5.90;;
3149;SDS011;32503;47.748;8.960;2024-01-07T10:28:14;7.97;;;6.00;;
3149;SDS011;32503;47.748;8.960;2024-01-07T10:30:41;5.20;;;4.80;;
3149;SDS011;32503;47.748;8.960;2024-01-07T10:33:16;11.33;;;9.83;;
3149;SDS011;32503;47.748;8.960;2024-01-07T10:35:45;6.30;;;5.73;;
3149;SDS011;32503;47.748;8.960;2024-01-07T10:38:19;5.30;;;4.77;;
3149;SDS011;32503;47.748;8.960;2024-01-07T10:40:48;5.53;;;5.03;;
3149;SDS011;32503;47.748;8.960;2024-01-07T10:43:18;6.37;;;5.70;;
3149;SDS011;32503;47.748;8.960;2024-01-07T10:45:47;5.30;;;4.90;;
3149;SDS011;32503;47.748;8.960;2024-01-07T10:48:15;5.10;;;4.63;;
3149;SDS011;32503;47.748;8.960;2024-01-07T10:50:45;7.07;;;6.37;;
3149;SDS011;32503;47.748;8.960;2024-01-07T10:53:17;7.30;;;6.70;;
3149;SDS011;32503;47.748;8.960;2024-01-07T10:55:51;10.83;;;9.03;;
3149;SDS011;32503;47.748;8.960;2024-01-07T10:58:25;7.83;;;6.70;;
3149;SDS011;32503;47.748;8.960;2024-01-07T11:00:52;9.33;;;7.77;;
3149;SDS011;32503;47.748;8.960;2024-01-07T11:03:24;8.77;;;7.97;;
3149;SDS011;32503;47.748;8.960;2024-01-07T11:06:04;7.57;;;6.47;;
3149;SDS011;32503;47.748;8.960;2024-01-07T11:08:39;12.73;;;8.37;;
3149;SDS011;32503;47.748;8.960;2024-01-07T11:11:15;9.73;;;7.87;;
3149;SDS011;32503;47.748;8.960;2024-01-07T11:13:48;5.30;;;4.80;;
3149;SDS011;32503;47.748;8.960;2024-01-07T11:16:15;6.27;;;5.67;;
3149;SDS011;32503;47.748;8.960;2024-01-07T11:19:09;6.40;;;5.03;;
3149;SDS011;32503;47.748;8.960;2024-01-07T11:21:40;4.80;;;4.40;;
3149;SDS011;32503;47.748;8.960;2024-01-07T11:24:07;5.43;;;4.93;;
3149;SDS011;32503;47.748;8.960;2024-01-07T11:26:36;5.97;;;5.47;;
3149;SDS011;32503;47.748;8.960;2024-01-07T11:29:04;5.43;;;5.03;;
3149;SDS011;32503;47.748;8.960;2024-01-07T11:31:45;6.73;;;6.10;;
3149;SDS011;32503;47.748;8.960;2024-01-07T11:37:10;4.93;;;4.60;;
3149;SDS011;32503;47.748;8.960;2024-01-07T11:39:38;31.40;;;19.33;;
3149;SDS011;32503;47.748;8.960;2024-01-07T11:42:09;9.03;;;8.33;;
3149;SDS011;32503;47.748;8.960;2024-01-07T11:44:37;10.60;;;8.33;;
3149;SDS011;32503;47.748;8.960;2024-01-07T11:47:12;8.33;;;7.20;;
3149;SDS011;32503;47.748;8.960;2024-01-07T11:49:39;12.37;;;9.20;;
3149;SDS011;32503;47.748;8.960;2024-01-07T11:52:06;7.80;;;5.70;;
3149;SDS011;32503;47.748;8.960;2024-01-07T11:54:35;8.57;;;5.80;;
3149;SDS011;32503;47.748;8.960;2024-01-07T11:57:03;6.63;;;6.03;;
3149;SDS011;32503;47.748;8.960;2024-01-07T11:59:32;7.43;;;6.50;;
3149;SDS011;32503;47.748;8.960;2024-01-07T12:02:00;8.60;;;7.10;;
3149;SDS011;32503;47.748;8.960;2024-01-07T12:04:29;5.90;;;5.30;;
3149;SDS011;32503;47.748;8.960;2024-01-07T12:06:56;7.10;;;6.50;;
3149;SDS011;32503;47.748;8.960;2024-01-07T12:09:23;6.03;;;5.53;;
3149;SDS011;32503;47.748;8.960;2024-01-07T12:11:52;4.90;;;4.60;;
3149;SDS011;32503;47.748;8.960;2024-01-07T12:14:19;7.10;;;5.97;;
3149;SDS011;32503;47.748;8.960;2024-01-07T12:16:48;6.97;;;6.43;;
3149;SDS011;32503;47.748;8.960;2024-01-07T12:19:15;5.00;;;4.60;;
3149;SDS011;32503;47.748;8.960;2024-01-07T12:21:43;6.13;;;5.30;;
3149;SDS011;32503;47.748;8.960;2024-01-07T12:24:10;7.67;;;7.13;;
3149;SDS011;32503;47.748;8.960;2024-01-07T12:26:38;9.80;;;6.80;;
3149;SDS011;32503;47.748;8.960;2024-01-07T12:29:05;15.47;;;11.23;;
3149;SDS011;32503;47.748;8.960;2024-01-07T12:31:32;30.17;;;17.90;;
3149;SDS011;32503;47.748;8.960;2024-01-07T12:34:01;16.97;;;13.87;;
3149;SDS011;32503;47.748;8.960;2024-01-07T12:36:29;24.07;;;19.47;;
3149;SDS011;32503;47.748;8.960;2024-01-07T12:38:56;17.93;;;15.03;;
3149;SDS011;32503;47.748;8.960;2024-01-07T12:41:24;7.40;;;6.87;;
3149;SDS011;32503;47.748;8.960;2024-01-07T12:43:51;11.50;;;9.57;;
3149;SDS011;32503;47.748;8.960;2024-01-07T12:46:18;15.87;;;10.90;;
3149;SDS011;32503;47.748;8.960;2024-01-07T12:48:45;19.50;;;11.70;;
3149;SDS011;32503;47.748;8.960;2024-01-07T12:51:13;13.33;;;8.50;;
3149;SDS011;32503;47.748;8.960;2024-01-07T12:53:41;12.73;;;9.87;;
3149;SDS011;32503;47.748;8.960;2024-01-07T12:56:08;8.60;;;7.07;;
3149;SDS011;32503;47.748;8.960;2024-01-07T12:58:35;13.10;;;10.03;;
3149;SDS011;32503;47.748;8.960;2024-01-07T13:01:02;7.80;;;7.00;;
3149;SDS011;32503;47.748;8.960;2024-01-07T13:03:30;10.77;;;6.70;;
3149;SDS011;32503;47.748;8.960;2024-01-07T13:05:57;7.63;;;6.17;;
3149;SDS011;32503;47.748;8.960;2024-01-07T13:08:25;8.20;;;6.53;;
3149;SDS011;32503;47.748;8.960;2024-01-07T13:10:52;10.00;;;6.77;;
3149;SDS011;32503;47.748;8.960;2024-01-07T13:13:21;10.23;;;6.03;;
3149;SDS011;32503;47.748;8.960;2024-01-07T13:15:48;8.27;;;6.20;;
3149;SDS011;32503;47.748;8.960;2024-01-07T13:18:16;9.77;;;6.43;;
3149;SDS011;32503;47.748;8.960;2024-01-07T13:20:43;8.03;;;7.13;;
3149;SDS011;32503;47.748;8.960;2024-01-07T13:23:10;4.37;;;4.03;;
3149;SDS011;32503;47.748;8.960;2024-01-07T13:25:39;9.00;;;6.07;;
3149;SDS011;32503;47.748;8.960;2024-01-07T13:28:06;8.57;;;7.20;;
3149;SDS011;32503;47.748;8.960;2024-01-07T13:30:35;5.57;;;5.07;;
3149;SDS011;32503;47.748;8.960;2024-01-07T13:33:05;6.93;;;5.90;;
3149;SDS011;32503;47.748;8.960;2024-01-07T13:35:33;4.30;;;3.90;;
3149;SDS011;32503;47.748;8.960;2024-01-07T13:38:00;5.77;;;4.37;;
3149;SDS011;32503;47.748;8.960;2024-01-07T13:40:28;3.87;;;3.57;;
3149;SDS011;32503;47.748;8.960;2024-01-07T13:42:56;4.50;;;4.20;;
3149;SDS011;32503;47.748;8.960;2024-01-07T13:45:23;4.70;;;4.23;;
3149;SDS011;32503;47.748;8.960;2024-01-07T13:47:50;4.70;;;4.30;;
3149;SDS011;32503;47.748;8.960;2024-01-07T13:50:17;4.17;;;3.77;;
3149;SDS011;32503;47.748;8.960;2024-01-07T13:52:44;4.47;;;3.50;;
3149;SDS011;32503;47.748;8.960;2024-01-07T13:55:11;10.67;;;7.70;;
3149;SDS011;32503;47.748;8.960;2024-01-07T13:57:39;4.53;;;4.13;;
3149;SDS011;32503;47.748;8.960;2024-01-07T14:00:09;6.43;;;4.30;;
3149;SDS011;32503;47.748;8.960;2024-01-07T14:02:43;4.77;;;4.33;;
3149;SDS011;32503;47.748;8.960;2024-01-07T14:05:11;4.00;;;3.70;;
3149;SDS011;32503;47.748;8.960;2024-01-07T14:07:38;3.57;;;3.27;;
3149;SDS011;32503;47.748;8.960;2024-01-07T14:10:06;3.97;;;3.77;;
3149;SDS011;32503;47.748;8.960;2024-01-07T14:12:34;3.80;;;3.50;;
3149;SDS011;32503;47.748;8.960;2024-01-07T14:15:01;4.33;;;4.03;;
3149;SDS011;32503;47.748;8.960;2024-01-07T14:17:30;4.30;;;4.00;;
3149;SDS011;32503;47.748;8.960;2024-01-07T14:19:57;3.10;;;2.80;;
3149;SDS011;32503;47.748;8.960;2024-01-07T14:22:24;4.00;;;3.77;;
3149;SDS011;32503;47.748;8.960;2024-01-07T14:24:51;4.57;;;4.27;;
3149;SDS011;32503;47.748;8.960;2024-01-07T14:27:18;3.83;;;3.63;;
3149;SDS011;32503;47.748;8.960;2024-01-07T14:29:45;3.30;;;3.00;;
3149;SDS011;32503;47.748;8.960;2024-01-07T14:32:13;3.90;;;3.70;;
3149;SDS011;32503;47.748;8.960;2024-01-07T14:34:41;4.57;;;3.40;;
3149;SDS011;32503;47.748;8.960;2024-01-07T14:37:09;4.27;;;3.83;;
3149;SDS011;32503;47.748;8.960;2024-01-07T14:39:36;3.87;;;3.10;;
3149;SDS011;32503;47.748;8.960;2024-01-07T14:42:03;4.47;;;4.10;;
3149;SDS011;32503;47.748;8.960;2024-01-07T14:44:30;4.07;;;3.70;;
3149;SDS011;32503;47.748;8.960;2024-01-07T14:46:57;5.20;;;4.30;;
3149;SDS011;32503;47.748;8.960;2024-01-07T14:49:25;4.20;;;3.80;;
3149;SDS011;32503;47.748;8.960;2024-01-07T14:51:53;3.40;;;3.20;;
3149;SDS011;32503;47.748;8.960;2024-01-07T14:54:20;4.00;;;3.70;;
3149;SDS011;32503;47.748;8.960;2024-01-07T14:56:47;3.13;;;2.93;;
3149;SDS011;32503;47.748;8.960;2024-01-07T14:59:14;4.40;;;4.00;;
3149;SDS011;32503;47.748;8.960;2024-01-07T15:01:41;5.23;;;4.03;;
3149;SDS011;32503;47.748;8.960;2024-01-07T15:04:09;5.23;;;4.73;;
3149;SDS011;32503;47.748;8.960;2024-01-07T15:06:40;4.23;;;3.57;;